Time;durP1;ratioP1;P1;durP2;ratioP2;P2;SDS_P1;SDS_P2;PMS_P1;PMS_P2;Temp;Humidity;BMP_temperature;BMP_pressure;BME280_temperature;BME280_humidity;BME280_pressure;Samples;Min_cycle;Max_cycle;Signal;HPM_P1;HPM_P2
2023/07/28 00:00:17;;;;;;;;;;;;;;;24.89;54.05;97027.22;621192;228;64802;-74
2023/07/28 00:02:44;;;;;;;;;;;;;;;24.88;53.98;97031.80;621218;228;67213;-74
2023/07/28 00:05:12;;;;;;;;;;;;;;;24.89;54.21;97030.70;621199;228;66882;-67
2023/07/28 00:07:39;;;;;;;;;;;;;;;24.87;53.56;97027.50;621180;228;62779;-67
2023/07/28 00:10:07;;;;;;;;;;;;;;;24.88;54.49;97034.49;621250;228;64907;-67
2023/07/28 00:12:34;;;;;;;;;;;;;;;24.88;54.71;97031.80;621149;227;64917;-66
2023/07/28 00:15:02;;;;;;;;;;;;;;;24.89;54.59;97032.59;621206;228;62618;-67
2023/07/28 00:17:29;;;;;;;;;;;;;;;24.86;53.69;97028.61;621199;228;64780;-67
2023/07/28 00:19:57;;;;;;;;;;;;;;;24.87;54.11;97035.56;621189;228;64986;-74
2023/07/28 00:22:25;;;;;;;;;;;;;;;24.87;54.26;97032.88;621189;228;64715;-74
2023/07/28 00:24:52;;;;;;;;;;;;;;;24.87;54.66;97030.19;621207;228;67587;-74
2023/07/28 00:27:20;;;;;;;;;;;;;;;24.86;53.72;97036.67;621187;228;66904;-74
2023/07/28 00:29:47;;;;;;;;;;;;;;;24.85;53.70;97036.95;621202;228;64581;-74
2023/07/28 00:32:15;;;;;;;;;;;;;;;24.86;54.23;97033.19;621190;228;67954;-67
2023/07/28 00:34:43;;;;;;;;;;;;;;;24.86;53.73;97030.50;621228;228;67456;-67
2023/07/28 00:37:11;;;;;;;;;;;;;;;24.85;53.70;97026.98;621185;228;62507;-67
2023/07/28 00:39:39;;;;;;;;;;;;;;;24.86;54.13;97022.44;621232;228;67815;-67
2023/07/28 00:42:07;;;;;;;;;;;;;;;24.85;53.96;97026.98;621180;228;64309;-67
2023/07/28 00:44:34;;;;;;;;;;;;;;;24.84;53.53;97030.78;621223;228;65775;-67
2023/07/28 00:47:02;;;;;;;;;;;;;;;24.84;54.54;97022.72;621240;228;66872;-67
2023/07/28 00:49:30;;;;;;;;;;;;;;;24.85;53.69;97026.98;621204;228;64508;-67
2023/07/28 00:51:58;;;;;;;;;;;;;;;24.84;53.69;97025.41;621220;228;62525;-67
2023/07/28 00:54:26;;;;;;;;;;;;;;;24.84;53.37;97027.30;621209;228;66905;-67
2023/07/28 00:56:53;;;;;;;;;;;;;;;24.83;54.10;97029.20;621210;228;66919;-66
2023/07/28 00:59:21;;;;;;;;;;;;;;;24.83;53.67;97021.13;621258;228;64789;-67
2023/07/28 01:01:49;;;;;;;;;;;;;;;24.84;53.78;97021.92;621188;228;66654;-67
2023/07/28 01:04:16;;;;;;;;;;;;;;;24.83;53.28;97017.62;621206;228;66752;-67
2023/07/28 01:06:48;;;;;;;;;;;;;;;24.83;53.84;97020.31;621183;228;64334;-67
2023/07/28 01:09:18;;;;;;;;;;;;;;;24.83;53.34;97018.45;621176;228;64900;-68
2023/07/28 01:11:56;;;;;;;;;;;;;;;24.83;53.49;97012.25;621151;228;65080;-67
2023/07/28 01:14:23;;;;;;;;;;;;;;;24.82;53.47;97011.45;621212;228;65935;-66
2023/07/28 01:16:51;;;;;;;;;;;;;;;24.83;54.28;97007.70;621186;228;67040;-66
2023/07/28 01:19:20;;;;;;;;;;;;;;;24.82;53.60;97008.77;621204;228;66831;-66
2023/07/28 01:21:49;;;;;;;;;;;;;;;24.81;54.20;97015.25;621179;228;62418;-66
2023/07/28 01:24:18;;;;;;;;;;;;;;;24.80;53.82;97011.77;620990;228;65048;-66
2023/07/28 01:26:46;;;;;;;;;;;;;;;24.80;53.76;97016.35;619273;228;67055;-66
2023/07/28 01:29:15;;;;;;;;;;;;;;;24.81;54.11;97018.73;621217;228;64759;-66
2023/07/28 01:31:42;;;;;;;;;;;;;;;24.79;53.28;97012.84;621158;228;66966;-66
2023/07/28 01:34:10;;;;;;;;;;;;;;;24.79;53.24;97014.73;621205;228;64665;-74
2023/07/28 01:36:37;;;;;;;;;;;;;;;24.79;53.63;97018.22;621156;228;63396;-74
2023/07/28 01:39:05;;;;;;;;;;;;;;;24.79;53.81;97022.80;621223;228;64969;-74
2023/07/28 01:41:33;;;;;;;;;;;;;;;24.79;53.61;97012.84;621165;228;67011;-74
2023/07/28 01:44:00;;;;;;;;;;;;;;;24.79;53.10;97017.43;621174;228;65559;-74
2023/07/28 01:46:28;;;;;;;;;;;;;;;24.80;54.54;97021.73;621164;228;67282;-74
2023/07/28 01:48:55;;;;;;;;;;;;;;;24.79;53.18;97020.11;621212;228;64597;-74
2023/07/28 01:51:23;;;;;;;;;;;;;;;24.78;53.86;97016.64;621178;228;65204;-74
2023/07/28 01:53:50;;;;;;;;;;;;;;;24.78;53.21;97026.59;621237;228;67031;-74
2023/07/28 01:56:18;;;;;;;;;;;;;;;24.78;53.69;97027.39;621176;228;66852;-74
2023/07/28 01:58:45;;;;;;;;;;;;;;;24.78;53.64;97031.97;621198;228;65568;-74
2023/07/28 02:01:16;;;;;;;;;;;;;;;24.77;53.54;97025.80;621135;228;68013;-74
2023/07/28 02:03:43;;;;;;;;;;;;;;;24.78;53.99;97027.39;621191;228;64603;-74
2023/07/28 02:06:11;;;;;;;;;;;;;;;24.78;54.63;97031.97;621236;228;62737;-74
2023/07/28 02:08:38;;;;;;;;;;;;;;;24.78;54.66;97029.28;621151;228;65450;-74
2023/07/28 02:11:06;;;;;;;;;;;;;;;24.77;54.27;97035.73;621162;228;67079;-73
2023/07/28 02:13:34;;;;;;;;;;;;;;;24.77;54.30;97031.17;623722;227;64696;-74
2023/07/28 02:16:03;;;;;;;;;;;;;;;24.78;54.10;97034.66;623688;227;67726;-74
2023/07/28 02:18:31;;;;;;;;;;;;;;;24.77;54.38;97030.36;623753;227;67674;-74
2023/07/28 02:20:58;;;;;;;;;;;;;;;24.76;54.04;97029.56;623679;227;62342;-74
2023/07/28 02:23:26;;;;;;;;;;;;;;;24.76;54.13;97034.15;623713;227;65822;-66
2023/07/28 02:25:53;;;;;;;;;;;;;;;24.76;53.99;97042.21;623673;227;67204;-66
2023/07/28 02:28:21;;;;;;;;;;;;;;;24.76;53.83;97044.90;623704;227;62422;-66
2023/07/28 02:30:49;;;;;;;;;;;;;;;24.76;54.07;97045.69;623721;227;67799;-66
2023/07/28 02:33:17;;;;;;;;;;;;;;;24.76;54.29;97042.21;623705;227;64933;-66
2023/07/28 02:35:44;;;;;;;;;;;;;;;24.74;53.92;97045.18;623654;227;63364;-66
2023/07/28 02:38:12;;;;;;;;;;;;;;;24.74;53.48;97042.48;623713;227;64981;-66
2023/07/28 02:40:39;;;;;;;;;;;;;;;24.73;53.56;97035.53;623715;227;66694;-66
2023/07/28 02:43:07;;;;;;;;;;;;;;;24.74;53.85;97041.70;623756;227;64556;-66
2023/07/28 02:45:34;;;;;;;;;;;;;;;24.73;54.04;97040.91;623766;227;66961;-67
2023/07/28 02:48:02;;;;;;;;;;;;;;;24.74;53.67;97047.08;623705;227;67798;-66
2023/07/28 02:50:29;;;;;;;;;;;;;;;24.72;53.51;97044.70;623663;227;64574;-66
2023/07/28 02:52:57;;;;;;;;;;;;;;;24.72;53.15;97049.28;623701;227;67481;-66
2023/07/28 02:55:24;;;;;;;;;;;;;;;24.72;53.40;97049.28;623708;227;66996;-66
2023/07/28 02:57:52;;;;;;;;;;;;;;;24.72;53.75;97050.08;623729;227;65525;-67
2023/07/28 03:00:20;;;;;;;;;;;;;;;24.71;53.64;97048.45;623698;227;64573;-67
2023/07/28 03:02:47;;;;;;;;;;;;;;;24.72;53.74;97047.38;623690;227;64786;-67
2023/07/28 03:05:15;;;;;;;;;;;;;;;24.73;53.54;97045.48;623688;227;63246;-75
2023/07/28 03:07:59;;;;;;;;;;;;;;;24.73;53.73;97050.86;618093;227;48295;-74
2023/07/28 03:10:27;;;;;;;;;;;;;;;24.72;53.62;97052.76;623748;227;67788;-74
2023/07/28 03:12:55;;;;;;;;;;;;;;;24.72;53.56;97051.97;622586;227;64542;-74
2023/07/28 03:15:22;;;;;;;;;;;;;;;24.71;53.81;97051.14;622204;228;67988;-74
2023/07/28 03:17:54;;;;;;;;;;;;;;;24.71;54.05;97053.04;622248;228;64976;-74
2023/07/28 03:20:22;;;;;;;;;;;;;;;24.71;53.54;97053.04;622250;228;64701;-67
2023/07/28 03:22:49;;;;;;;;;;;;;;;24.70;53.29;97049.56;622242;228;64675;-67
2023/07/28 03:25:17;;;;;;;;;;;;;;;24.70;53.53;97051.45;622321;228;64975;-67
2023/07/28 03:27:45;;;;;;;;;;;;;;;24.70;53.60;97052.25;622227;228;62351;-67
2023/07/28 03:30:13;;;;;;;;;;;;;;;24.69;53.51;97050.66;622254;228;66888;-67
2023/07/28 03:32:41;;;;;;;;;;;;;;;24.70;53.09;97043.39;622263;228;66671;-67
2023/07/28 03:35:09;;;;;;;;;;;;;;;24.69;53.31;97047.98;622263;228;64697;-67
2023/07/28 03:37:38;;;;;;;;;;;;;;;24.70;53.86;97046.08;622268;227;45760;-67
2023/07/28 03:40:06;;;;;;;;;;;;;;;24.69;53.62;97044.47;622221;228;67250;-67
2023/07/28 03:42:35;;;;;;;;;;;;;;;24.67;53.35;97042.09;622026;227;43460;-67
2023/07/28 03:45:03;;;;;;;;;;;;;;;24.68;52.95;97048.26;622255;228;67018;-67
2023/07/28 03:47:31;;;;;;;;;;;;;;;24.67;53.04;97052.84;622237;228;66911;-67
2023/07/28 03:49:58;;;;;;;;;;;;;;;24.67;53.11;97047.47;622310;228;64578;-67
2023/07/28 03:52:26;;;;;;;;;;;;;;;24.67;52.96;97049.36;622237;228;64907;-67
2023/07/28 03:54:53;;;;;;;;;;;;;;;24.66;52.15;97061.98;622253;228;64943;-67
2023/07/28 03:57:21;;;;;;;;;;;;;;;24.66;53.13;97053.13;622249;228;64583;-67
2023/07/28 03:59:48;;;;;;;;;;;;;;;24.65;52.68;97059.59;622258;228;66787;-67
2023/07/28 04:02:16;;;;;;;;;;;;;;;24.65;53.45;97063.08;622281;228;66897;-67
2023/07/28 04:04:43;;;;;;;;;;;;;;;24.65;52.96;97056.91;622258;228;64907;-67
2023/07/28 04:07:11;;;;;;;;;;;;;;;24.65;52.91;97057.70;622281;228;65135;-67
2023/07/28 04:09:38;;;;;;;;;;;;;;;24.64;52.50;97049.95;622239;228;64345;-67
2023/07/28 04:12:06;;;;;;;;;;;;;;;24.64;52.99;97053.43;621805;228;62581;-67
2023/07/28 04:14:33;;;;;;;;;;;;;;;24.64;52.82;97053.43;621193;228;67127;-67
2023/07/28 04:17:01;;;;;;;;;;;;;;;24.63;51.79;97045.66;621242;228;64818;-67
2023/07/28 04:19:29;;;;;;;;;;;;;;;24.63;52.35;97051.02;621221;228;62450;-67
2023/07/28 04:22:01;;;;;;;;;;;;;;;24.63;52.95;97048.34;621188;228;67974;-67
2023/07/28 04:24:29;;;;;;;;;;;;;;;24.63;52.84;97059.09;621181;228;67100;-67
2023/07/28 04:26:58;;;;;;;;;;;;;;;24.63;53.20;97051.02;621190;228;63507;-67
2023/07/28 04:29:26;;;;;;;;;;;;;;;24.63;52.68;97045.66;621202;228;67099;-67
2023/07/28 04:31:54;;;;;;;;;;;;;;;24.62;52.85;97052.13;621207;228;65124;-67
2023/07/28 04:34:23;;;;;;;;;;;;;;;24.62;52.52;97052.13;620952;228;43550;-67
2023/07/28 04:37:05;;;;;;;;;;;;;;;24.61;51.75;97059.39;621263;228;49649;-67
2023/07/28 04:39:34;;;;;;;;;;;;;;;24.62;53.05;97065.56;620810;228;45246;-67
2023/07/28 04:42:02;;;;;;;;;;;;;;;24.61;53.02;97063.95;621201;228;65089;-67
2023/07/28 04:44:30;;;;;;;;;;;;;;;24.61;51.90;97058.57;621255;228;67192;-67
2023/07/28 04:46:59;;;;;;;;;;;;;;;24.59;52.22;97059.67;621205;228;43687;-66
2023/07/28 04:49:27;;;;;;;;;;;;;;;24.60;52.88;97057.78;621184;228;65085;-66
2023/07/28 04:51:56;;;;;;;;;;;;;;;24.61;52.78;97063.95;620263;228;44209;-67
2023/07/28 04:54:31;;;;;;;;;;;;;;;24.60;52.89;97060.47;620732;228;44261;-67
2023/07/28 04:56:59;;;;;;;;;;;;;;;24.58;52.29;97066.16;621232;228;62422;-67
2023/07/28 04:59:28;;;;;;;;;;;;;;;24.58;51.93;97059.95;621060;228;45816;-67
2023/07/28 05:01:56;;;;;;;;;;;;;;;24.58;52.84;97058.09;621212;228;66685;-67
2023/07/28 05:04:23;;;;;;;;;;;;;;;24.58;52.52;97059.95;621191;228;64872;-67
2023/07/28 05:06:51;;;;;;;;;;;;;;;24.56;51.07;97057.58;621191;228;66711;-67
2023/07/28 05:09:19;;;;;;;;;;;;;;;24.56;51.84;97060.27;621229;228;64783;-75
2023/07/28 05:11:46;;;;;;;;;;;;;;;24.57;52.44;97063.75;621145;227;64916;-74
2023/07/28 05:14:14;;;;;;;;;;;;;;;24.57;52.73;97056.48;621157;228;66821;-75
2023/07/28 05:16:41;;;;;;;;;;;;;;;24.57;52.60;97059.16;621131;228;66836;-75
2023/07/28 05:19:11;;;;;;;;;;;;;;;24.57;52.36;97059.16;621210;228;45935;-75
2023/07/28 05:21:56;;;;;;;;;;;;;;;24.56;52.21;97052.20;621280;228;37929;-75
2023/07/28 05:24:26;;;;;;;;;;;;;;;24.58;52.92;97050.03;621036;228;44352;-74
2023/07/28 05:26:53;;;;;;;;;;;;;;;24.57;52.03;97050.31;621157;228;64873;-74
2023/07/28 05:29:21;;;;;;;;;;;;;;;24.57;52.99;97053.00;621177;228;65337;-74
2023/07/28 05:31:48;;;;;;;;;;;;;;;24.56;53.00;97052.20;621180;228;67346;-74
2023/07/28 05:34:18;;;;;;;;;;;;;;;24.56;52.18;97051.41;620641;228;46119;-74
2023/07/28 05:36:45;;;;;;;;;;;;;;;24.56;52.46;97051.41;621256;228;65783;-74
2023/07/28 05:39:13;;;;;;;;;;;;;;;24.55;52.97;97055.99;621123;228;67002;-74
2023/07/28 05:41:42;;;;;;;;;;;;;;;24.56;53.16;97056.78;621197;228;41870;-75
2023/07/28 05:44:11;;;;;;;;;;;;;;;24.55;52.57;97055.17;621129;228;67631;-74
2023/07/28 05:46:38;;;;;;;;;;;;;;;24.54;52.34;97051.69;621168;228;64934;-74
2023/07/28 05:49:06;;;;;;;;;;;;;;;24.54;52.88;97056.27;621168;228;64753;-75
2023/07/28 05:51:34;;;;;;;;;;;;;;;24.54;52.49;97057.06;621189;228;67195;-74
2023/07/28 05:54:02;;;;;;;;;;;;;;;24.54;52.43;97050.90;621151;228;64730;-74
2023/07/28 05:56:29;;;;;;;;;;;;;;;24.55;52.46;97055.17;621065;228;64756;-74
2023/07/28 05:58:57;;;;;;;;;;;;;;;24.54;53.26;97053.59;621144;228;67195;-75
2023/07/28 06:01:26;;;;;;;;;;;;;;;24.53;52.54;97047.42;620521;228;64503;-75
2023/07/28 06:04:12;;;;;;;;;;;;;;;24.53;52.90;97047.42;621257;228;39753;-73
2023/07/28 06:06:41;;;;;;;;;;;;;;;24.53;52.85;97047.42;621087;228;44902;-67
2023/07/28 06:09:09;;;;;;;;;;;;;;;24.52;53.17;97048.49;621010;228;67354;-70
2023/07/28 06:11:37;;;;;;;;;;;;;;;24.53;53.51;97039.36;623598;226;65537;-71
2023/07/28 06:14:05;;;;;;;;;;;;;;;24.52;52.96;97045.81;623181;227;64525;-71
2023/07/28 06:16:34;;;;;;;;;;;;;;;24.52;53.12;97040.44;623194;227;45442;-70
2023/07/28 06:19:04;;;;;;;;;;;;;;;24.53;54.61;97041.26;623260;227;64556;-72
2023/07/28 06:21:32;;;;;;;;;;;;;;;24.52;53.28;97039.64;623154;227;64607;-72
2023/07/28 06:23:59;;;;;;;;;;;;;;;24.53;53.92;97041.26;623211;227;65638;-72
2023/07/28 06:26:27;;;;;;;;;;;;;;;24.52;53.12;97035.06;623251;227;64577;-73
2023/07/28 06:28:55;;;;;;;;;;;;;;;24.52;52.78;97034.27;623080;227;64580;-72
2023/07/28 06:31:22;;;;;;;;;;;;;;;24.52;52.98;97029.69;623279;227;67059;-72
2023/07/28 06:33:49;;;;;;;;;;;;;;;24.52;53.32;97018.94;623164;227;64575;-71
2023/07/28 06:36:17;;;;;;;;;;;;;;;24.52;52.54;97024.31;623057;227;67286;-75
2023/07/28 06:38:48;;;;;;;;;;;;;;;24.52;52.62;97020.84;623246;227;64786;-74
2023/07/28 06:41:14;;;;;;;;;;;;;;;24.53;52.66;97017.08;623077;227;65922;-74
2023/07/28 06:43:43;;;;;;;;;;;;;;;24.54;52.65;97022.14;622865;227;64887;-74
2023/07/28 06:46:11;;;;;;;;;;;;;;;24.53;52.95;97015.19;623211;227;67629;-72
2023/07/28 06:48:39;;;;;;;;;;;;;;;24.54;52.85;97015.97;623191;227;62569;-72
2023/07/28 06:51:06;;;;;;;;;;;;;;;24.55;52.46;97010.32;623227;227;67216;-73
2023/07/28 06:53:34;;;;;;;;;;;;;;;24.57;53.78;97013.48;623203;227;66901;-73
2023/07/28 06:56:02;;;;;;;;;;;;;;;24.58;53.67;97015.10;623230;227;62341;-72
2023/07/28 06:58:29;;;;;;;;;;;;;;;24.58;51.78;97012.41;623138;227;64760;-74
2023/07/28 07:00:58;;;;;;;;;;;;;;;24.59;52.32;97008.63;623160;227;64786;-70
2023/07/28 07:03:25;;;;;;;;;;;;;;;24.61;53.97;97010.20;623216;227;64489;-72
2023/07/28 07:05:53;;;;;;;;;;;;;;;24.63;55.09;97010.72;623127;227;64479;-71
2023/07/28 07:08:21;;;;;;;;;;;;;;;24.61;54.75;97008.34;623232;227;67498;-71
2023/07/28 07:10:51;;;;;;;;;;;;;;;24.62;54.39;97006.45;623178;227;64510;-72
2023/07/28 07:13:19;;;;;;;;;;;;;;;24.62;54.07;97009.92;620998;227;67619;-71
2023/07/28 07:15:47;;;;;;;;;;;;;;;24.62;54.29;97009.14;620758;228;66698;-70
2023/07/28 07:18:14;;;;;;;;;;;;;;;24.62;54.15;96999.18;620814;228;64531;-63
2023/07/28 07:20:42;;;;;;;;;;;;;;;24.62;54.08;97001.08;620895;228;67165;-65
2023/07/28 07:23:10;;;;;;;;;;;;;;;24.63;54.53;96999.97;620753;228;65241;-68
2023/07/28 07:25:37;;;;;;;;;;;;;;;24.63;54.56;97002.66;620769;228;64952;-67
2023/07/28 07:28:05;;;;;;;;;;;;;;;24.62;54.33;97004.55;620838;228;67087;-71
2023/07/28 07:30:35;;;;;;;;;;;;;;;24.63;53.92;97002.66;620832;228;67239;-71
2023/07/28 07:33:03;;;;;;;;;;;;;;;24.63;54.70;97005.34;620787;228;64783;-74
2023/07/28 07:35:30;;;;;;;;;;;;;;;24.64;54.56;97009.65;620884;228;67174;-74
2023/07/28 07:37:58;;;;;;;;;;;;;;;24.63;54.31;97002.66;620816;228;65033;-73
2023/07/28 07:40:25;;;;;;;;;;;;;;;24.63;54.73;96998.08;620799;228;64633;-73
2023/07/28 07:42:53;;;;;;;;;;;;;;;24.62;54.11;97001.08;620885;228;66694;-72
2023/07/28 07:45:20;;;;;;;;;;;;;;;24.64;54.30;96993.52;620789;228;66824;-74
2023/07/28 07:47:48;;;;;;;;;;;;;;;24.64;54.37;96998.90;620839;227;64747;-72
2023/07/28 07:50:16;;;;;;;;;;;;;;;24.65;54.46;97000.48;620819;228;67437;-71
2023/07/28 07:52:43;;;;;;;;;;;;;;;24.65;54.39;96995.11;620777;228;67119;-72
2023/07/28 07:55:14;;;;;;;;;;;;;;;24.65;54.99;96995.11;620814;228;64697;-72
2023/07/28 07:57:41;;;;;;;;;;;;;;;24.66;54.75;96996.69;620825;228;67247;-73
2023/07/28 08:00:10;;;;;;;;;;;;;;;24.66;55.24;96986.73;620854;228;65003;-72
2023/07/28 08:02:40;;;;;;;;;;;;;;;24.66;54.16;96996.69;620895;228;37467;-69
2023/07/28 08:05:08;;;;;;;;;;;;;;;24.65;54.93;96995.90;620845;228;67232;-69
2023/07/28 08:07:35;;;;;;;;;;;;;;;24.65;54.74;96997.80;620864;228;67092;-69
2023/07/28 08:10:03;;;;;;;;;;;;;;;24.65;55.06;97001.27;620775;228;64749;-69
2023/07/28 08:12:31;;;;;;;;;;;;;;;24.64;55.07;96997.00;622156;227;67147;-65
2023/07/28 08:14:59;;;;;;;;;;;;;;;24.64;54.79;96994.31;623316;227;64772;-68
2023/07/28 08:17:26;;;;;;;;;;;;;;;24.65;54.41;96997.80;623178;227;62605;-67
2023/07/28 08:19:54;;;;;;;;;;;;;;;24.65;54.93;96992.42;623191;227;65119;-67
2023/07/28 08:22:22;;;;;;;;;;;;;;;24.64;54.60;96988.16;623206;227;67237;-67
2023/07/28 08:24:49;;;;;;;;;;;;;;;24.65;54.75;96989.73;623242;227;64717;-66
2023/07/28 08:27:17;;;;;;;;;;;;;;;24.65;54.66;96993.21;623277;227;67413;-66
2023/07/28 08:29:44;;;;;;;;;;;;;;;24.64;54.98;96988.94;623127;227;66518;-66
2023/07/28 08:32:12;;;;;;;;;;;;;;;24.65;54.36;96989.73;623215;227;64611;-68
2023/07/28 08:34:39;;;;;;;;;;;;;;;24.65;54.69;96992.42;623178;227;64922;-70
2023/07/28 08:37:07;;;;;;;;;;;;;;;24.65;54.89;96992.42;623163;227;65227;-71
2023/07/28 08:39:35;;;;;;;;;;;;;;;24.64;54.81;96991.63;623261;227;65415;-77
2023/07/28 08:42:04;;;;;;;;;;;;;;;24.64;54.32;96998.90;623177;227;67069;-70
2023/07/28 08:44:35;;;;;;;;;;;;;;;24.64;54.52;96994.31;621718;227;64999;-71
2023/07/28 08:47:09;;;;;;;;;;;;;;;24.63;54.44;96983.84;621519;228;64337;-71
2023/07/28 08:49:35;;;;;;;;;;;;;;;24.63;54.50;96983.84;621275;228;67650;-72
2023/07/28 08:52:03;;;;;;;;;;;;;;;24.64;54.29;96985.46;621511;228;64300;-71
2023/07/28 08:54:31;;;;;;;;;;;;;;;24.64;48.27;96980.09;621647;228;64644;-72
2023/07/28 08:56:59;;;;;;;;;;;;;;;24.67;54.17;96987.55;621560;228;66857;-73
2023/07/28 08:59:27;;;;;;;;;;;;;;;24.64;48.90;96993.52;621529;228;66853;-67
2023/07/28 09:01:55;;;;;;;;;;;;;;;24.66;47.04;96988.63;621488;228;64738;-67
2023/07/28 09:04:23;;;;;;;;;;;;;;;24.67;55.13;96985.66;621547;228;67217;-68
2023/07/28 09:06:51;;;;;;;;;;;;;;;24.65;54.19;96977.09;621573;228;66765;-69
2023/07/28 09:09:22;;;;;;;;;;;;;;;24.62;50.85;96976.89;621570;228;62575;-67
2023/07/28 09:11:51;;;;;;;;;;;;;;;24.61;52.08;96983.34;621381;228;66743;-68
2023/07/28 09:14:19;;;;;;;;;;;;;;;24.60;48.80;96982.55;621503;228;64609;-63
2023/07/28 09:16:47;;;;;;;;;;;;;;;24.59;52.06;96971.01;621563;228;64778;-64
2023/07/28 09:19:16;;;;;;;;;;;;;;;24.59;51.12;96973.70;621548;228;67213;-63
2023/07/28 09:21:49;;;;;;;;;;;;;;;24.59;51.50;96975.59;621506;228;66882;-67
2023/07/28 09:24:14;;;;;;;;;;;;;;;24.57;51.28;96965.13;621290;228;63306;-68
2023/07/28 09:26:42;;;;;;;;;;;;;;;24.57;52.67;96967.81;621499;228;64910;-73
2023/07/28 09:29:14;;;;;;;;;;;;;;;24.57;50.29;96961.65;621551;228;65068;-72
2023/07/28 09:31:42;;;;;;;;;;;;;;;24.56;52.67;96963.55;621519;228;64674;-71
2023/07/28 09:34:10;;;;;;;;;;;;;;;24.56;52.13;96960.86;621537;228;68202;-70
2023/07/28 09:36:38;;;;;;;;;;;;;;;24.54;49.37;96957.66;621513;228;64876;-77
2023/07/28 09:39:09;;;;;;;;;;;;;;;24.56;50.91;96955.48;621551;228;62579;-69
2023/07/28 09:41:38;;;;;;;;;;;;;;;24.53;46.76;96948.02;621514;228;67048;-70
2023/07/28 09:44:08;;;;;;;;;;;;;;;24.56;43.40;96942.05;621582;228;66821;-69
2023/07/28 09:46:36;;;;;;;;;;;;;;;24.61;55.25;96948.41;621607;228;62583;-70
2023/07/28 09:49:05;;;;;;;;;;;;;;;24.58;55.33;96945.25;621477;228;64990;-65
2023/07/28 09:51:34;;;;;;;;;;;;;;;24.56;52.01;96952.00;621540;228;64773;-65
2023/07/28 09:54:06;;;;;;;;;;;;;;;24.57;52.82;96946.32;621478;228;62747;-65
2023/07/28 09:56:34;;;;;;;;;;;;;;;24.56;54.94;96944.73;621486;228;67080;-65
2023/07/28 09:59:03;;;;;;;;;;;;;;;24.57;56.58;96942.84;621547;228;64944;-66
2023/07/28 10:01:31;;;;;;;;;;;;;;;24.57;56.85;96932.09;621479;228;64720;-66
2023/07/28 10:03:59;;;;;;;;;;;;;;;24.56;55.70;96925.93;621443;228;67261;-66
2023/07/28 10:06:27;;;;;;;;;;;;;;;24.56;56.46;96928.62;621549;228;67114;-66
2023/07/28 10:08:54;;;;;;;;;;;;;;;24.55;54.04;96929.72;622157;227;64688;-66
2023/07/28 10:11:22;;;;;;;;;;;;;;;24.56;55.56;96922.45;621850;227;66745;-66
2023/07/28 10:13:51;;;;;;;;;;;;;;;24.56;55.01;96925.93;621472;228;64760;-66
2023/07/28 10:16:19;;;;;;;;;;;;;;;24.53;47.47;96921.16;621404;228;64875;-65
2023/07/28 10:18:54;;;;;;;;;;;;;;;24.57;53.06;96918.66;621456;228;67317;-67
2023/07/28 10:21:21;;;;;;;;;;;;;;;24.56;51.80;96906.33;621443;228;64987;-72
2023/07/28 10:23:56;;;;;;;;;;;;;;;24.56;47.42;96922.45;621443;228;62694;-72
2023/07/28 10:26:28;;;;;;;;;;;;;;;24.57;53.27;96900.64;621447;228;67440;-72
2023/07/28 10:28:56;;;;;;;;;;;;;;;24.56;54.03;96901.75;620097;228;66916;-72
2023/07/28 10:31:24;;;;;;;;;;;;;;;24.54;52.53;96893.19;624913;226;62554;-72
2023/07/28 10:33:52;;;;;;;;;;;;;;;24.54;51.71;96897.77;625482;226;65018;-73
2023/07/28 10:36:25;;;;;;;;;;;;;;;24.54;50.19;96901.24;618894;226;64961;-71
2023/07/28 10:39:03;;;;;;;;;;;;;;;24.54;52.58;96897.77;624511;226;62300;-71
2023/07/28 10:41:31;;;;;;;;;;;;;;;24.55;51.52;96900.17;618210;229;67300;-72
2023/07/28 10:43:58;;;;;;;;;;;;;;;24.54;52.08;96895.88;618185;229;65061;-71
2023/07/28 10:46:27;;;;;;;;;;;;;;;24.54;51.93;96895.88;618149;229;62589;-72
2023/07/28 10:48:54;;;;;;;;;;;;;;;24.54;51.54;96884.33;618211;229;67244;-71
2023/07/28 10:51:24;;;;;;;;;;;;;;;24.54;52.74;96895.88;618182;229;66942;-71
2023/07/28 10:53:54;;;;;;;;;;;;;;;24.53;53.23;96886.23;622084;226;62525;-71
2023/07/28 10:56:23;;;;;;;;;;;;;;;24.53;52.00;96894.28;625804;226;64847;-67
2023/07/28 10:59:00;;;;;;;;;;;;;;;24.52;53.04;96889.98;625730;226;66838;-69
2023/07/28 11:01:33;;;;;;;;;;;;;;;24.53;52.23;96888.12;625673;226;62597;-62
2023/07/28 11:04:08;;;;;;;;;;;;;;;24.55;54.36;96884.05;625672;226;67195;-61
2023/07/28 11:06:36;;;;;;;;;;;;;;;24.53;53.86;96883.55;625683;226;65369;-61
2023/07/28 11:09:05;;;;;;;;;;;;;;;24.52;52.22;96884.61;625730;226;62701;-61
2023/07/28 11:11:36;;;;;;;;;;;;;;;24.53;51.90;96880.06;624920;226;67218;-61
2023/07/28 11:14:09;;;;;;;;;;;;;;;24.51;52.47;96876.87;621065;228;65064;-70
2023/07/28 11:16:38;;;;;;;;;;;;;;;24.51;52.17;96884.93;621170;226;64714;-72
2023/07/28 11:19:16;;;;;;;;;;;;;;;24.51;51.51;96876.87;618189;229;67280;-71
2023/07/28 11:21:40;;;;;;;;;;;;;;;24.50;51.94;96869.89;617754;229;67148;-71
2023/07/28 11:24:08;;;;;;;;;;;;;;;24.50;50.38;96868.02;618313;229;64779;-72
2023/07/28 11:26:36;;;;;;;;;;;;;;;24.51;52.02;96863.44;618232;229;66849;-72
2023/07/28 11:29:05;;;;;;;;;;;;;;;24.50;50.46;96872.57;618179;229;64582;-72
2023/07/28 11:31:33;;;;;;;;;;;;;;;24.50;48.59;96865.34;618235;229;64823;-72
2023/07/28 11:34:00;;;;;;;;;;;;;;;24.51;51.13;96863.44;618200;229;67444;-73
2023/07/28 11:36:29;;;;;;;;;;;;;;;24.51;54.07;96866.13;618189;229;67329;-74
2023/07/28 11:38:58;;;;;;;;;;;;;;;24.50;51.43;96862.65;618293;229;64513;-73
2023/07/28 11:41:26;;;;;;;;;;;;;;;24.51;52.38;96860.75;618204;229;67213;-72
2023/07/28 11:43:54;;;;;;;;;;;;;;;24.50;51.69;96854.59;618190;229;66862;-74
2023/07/28 11:46:35;;;;;;;;;;;;;;;24.50;51.83;96859.14;618232;229;64552;-73
2023/07/28 11:49:10;;;;;;;;;;;;;;;24.49;51.20;96855.66;618230;229;67046;-73
2023/07/28 11:51:42;;;;;;;;;;;;;;;24.49;51.62;96852.19;618273;229;66949;-72
2023/07/28 11:54:11;;;;;;;;;;;;;;;24.50;53.12;96853.77;618069;229;64598;-65
2023/07/28 11:56:38;;;;;;;;;;;;;;;24.50;53.09;96843.84;618171;229;65150;-73
2023/07/28 11:59:06;;;;;;;;;;;;;;;24.52;54.06;96844.31;618229;229;65023;-70
2023/07/28 12:01:33;;;;;;;;;;;;;;;24.52;44.65;96836.26;618194;229;62777;-74
2023/07/28 12:04:02;;;;;;;;;;;;;;;24.57;47.60;96840.75;618139;229;65119;-73
2023/07/28 12:06:30;;;;;;;;;;;;;;;24.60;46.89;96832.09;617246;229;65778;-68
2023/07/28 12:08:59;;;;;;;;;;;;;;;24.61;46.12;96824.81;618224;229;64481;-61
2023/07/28 12:11:26;;;;;;;;;;;;;;;24.63;45.77;96830.70;617712;229;64912;-62
2023/07/28 12:13:54;;;;;;;;;;;;;;;24.66;46.20;96827.41;617408;230;66815;-61
2023/07/28 12:16:36;;;;;;;;;;;;;;;24.66;45.58;96827.41;617393;230;61774;-61
2023/07/28 12:19:07;;;;;;;;;;;;;;;24.68;45.47;96823.33;617185;228;67249;-61
2023/07/28 12:21:33;;;;;;;;;;;;;;;24.70;45.65;96817.67;617334;230;65274;-62
2023/07/28 12:24:00;;;;;;;;;;;;;;;24.71;47.54;96811.19;620665;227;64635;-62
2023/07/28 12:26:28;;;;;;;;;;;;;;;24.70;49.00;96815.77;624312;227;65016;-62
2023/07/28 12:28:56;;;;;;;;;;;;;;;24.70;47.58;96810.39;624342;227;67110;-76
2023/07/28 12:31:23;;;;;;;;;;;;;;;24.70;48.71;96810.39;624340;227;62470;-64
2023/07/28 12:33:51;;;;;;;;;;;;;;;24.71;46.80;96806.60;624385;227;64286;-63
2023/07/28 12:36:18;;;;;;;;;;;;;;;24.77;45.46;96826.10;624312;227;66871;-64
2023/07/28 12:38:46;;;;;;;;;;;;;;;24.83;45.48;96816.86;624370;227;64750;-64
2023/07/28 12:41:13;;;;;;;;;;;;;;;24.87;43.40;96808.98;624300;227;66784;-65
2023/07/28 12:43:41;;;;;;;;;;;;;;;24.90;46.84;96808.37;624414;227;66990;-72
2023/07/28 12:46:08;;;;;;;;;;;;;;;24.91;45.84;96807.27;624246;227;62839;-71
2023/07/28 12:48:36;;;;;;;;;;;;;;;24.89;51.59;96810.28;624357;227;67150;-72
2023/07/28 12:51:03;;;;;;;;;;;;;;;24.83;51.06;96806.11;624345;227;67005;-72
2023/07/28 12:53:31;;;;;;;;;;;;;;;24.82;50.69;96809.88;624334;227;64750;-72